Nearby METAR Reports

 

KLOT - Romeoville/Chi, Illinois, USA
Distance from station: N 3mi, 5km
Updated: Thu, 15-Nov-2018 10:55am CST
Light Snow
Light Snow
 Wind from calm
Wind: Calm
Temperature: 32°F , 0°C
Dew Point: 30°F , -1°C
Humidity: 93%
Barometer: 30.06 inHg , 1017.9 hPa
Summary: Light Snow
Visibility: 4 miles , 6 km
2018/11/15 16:55 KLOT 151655Z AUTO 00000KT 4SM -SN 00/M01 A3006 RMK AO2 T00011009
KJOT - Joliet, Illinois, USA
Distance from station: WSW 5mi, 7km
Updated: Thu, 15-Nov-2018 10:55am CST
Mist, Overcast
Mist, Overcast
 Wind from calm
Wind: Calm
Temperature: 34°F , 1°C
Dew Point: 30°F , -1°C
Humidity: 87%
Barometer: 30.07 inHg , 1018.3 hPa
Summary: Mist
Clouds: Overcast
Visibility: 3 miles , 5 km
Cloud details: Mostly cloudy 1100 ft
Overcast 1600 ft
2018/11/15 16:55 KJOT 151655Z AUTO 00000KT 3SM BR BKN011 OVC016 01/M01 A3007 RMK AO2 T00061008
 
KC09 - Morris-Washburn, Illinois, USA
Distance from station: WSW 18mi, 29km
Updated: Thu, 15-Nov-2018 10:55am CST
Light snow, Overcast
Light snow, Overcast
 Wind from ENE
Wind: ENE 3 mph , 6 km/h
Temperature: 32°F , 0°C
Dew Point: 30°F , -1°C
Humidity: 93%
Barometer: 30.06 inHg , 1017.9 hPa
Summary: Light Snow
Clouds: Overcast
Visibility: 2 miles , 3 km
Cloud details: Mostly cloudy 800 ft
Overcast 1400 ft
2018/11/15 16:55 KC09 151655Z AUTO 07003KT 2SM -SN BKN008 OVC014 00/M01 A3006 RMK AO2 T10011015
KARR - Chicago/Aurora, Illinois, USA
Distance from station: NW 24mi, 39km
Updated: Thu, 15-Nov-2018 10:52am CST
Light snow, Mist, Overcast
Light snow, Mist, Overcast
 Wind from calm
Wind: Calm
Temperature: 30°F , -1°C
Dew Point: 28°F , -2°C
Humidity: 93%
Barometer: 30.06 inHg , 1017.9 hPa
Summary: Light snow, Mist
Clouds: Overcast
Visibility: 1 1/4 miles , 2 km
Cloud details: Partly cloudy 600 ft
Overcast 2200 ft
2018/11/15 16:52 KARR 151652Z 00000KT 1 1/4SM -SN BR SCT006 OVC022 M01/M02 A3006 RMK AO2 SLP188 P0001 T10061022
 
KMDW - Chicago, Illinois, USA
Distance from station: NE 25mi, 39km
Updated: Thu, 15-Nov-2018 10:53am CST
Light snow, Mist, Overcast
Light snow, Mist, Overcast
 Wind from S
Wind: S 6 mph , 9 km/h
Temperature: 34°F , 1°C
Wind Chill: 29°F , -2°C
Dew Point: 30°F , -1°C
Humidity: 87%
Barometer: 30.06 inHg , 1017.9 hPa
Summary: Light snow, Mist
Clouds: Overcast
Visibility: 1 3/4 miles , 2.8 km
Cloud details: Mostly cloudy 600 ft
Overcast 1400 ft
2018/11/15 16:53 KMDW 151653Z 19005KT 1 3/4SM -SN BR BKN006 OVC014 01/M01 A3006 RMK AO2 SLP189 P0000 T00061011 $
KDPA - Chicago/Dupage, Illinois, USA
Distance from station: NNW 26mi, 42km
Updated: Thu, 15-Nov-2018 10:52am CST
Snow, Freezing, Fog, Overcast
Snow, Freezing, Fog, Overcast
 Wind from SSW
Wind: SSW 3 mph , 6 km/h
Temperature: 30°F , -1°C
Dew Point: 28°F , -2°C
Humidity: 93%
Barometer: 30.05 inHg , 1017.6 hPa
Summary: Snow, Freezing, Fog
Clouds: Overcast
Visibility: 1/4 mile , 0.4 km
Cloud details: Few Clouds 400 ft
Overcast 1100 ft
2018/11/15 16:52 KDPA 151652Z 20003KT 1/4SM R02L/4000FT SN FZFG FEW004 OVC011 M01/M02 A3005 RMK AO2 SLP186 P0005 T10061017
 
KIGQ - Chicago/Lansing, Illinois, USA
Distance from station: E 30mi, 48km
Updated: Thu, 15-Nov-2018 10:55am CST
Light snow, Overcast
Light snow, Overcast
 Wind from ESE
Wind: ESE 3 mph , 6 km/h
Temperature: 32°F , 0°C
Dew Point: 27°F , -3°C
Humidity: 80%
Barometer: 30.06 inHg , 1017.9 hPa
Summary: Light Snow
Clouds: Overcast
Visibility: 3 miles , 5 km
Cloud details: Overcast 1000 ft
2018/11/15 16:55 KIGQ 151655Z AUTO 12003KT 3SM -SN OVC010 00/M03 A3006 RMK AO2 T10011027
KORD - Chicago O'hare, Illinois, USA
Distance from station: NNE 31mi, 50km
Updated: Thu, 15-Nov-2018 10:51am CST
Light snow, Mist, Overcast
Light snow, Mist, Overcast
 Wind from calm
Wind: Calm
Temperature: 34°F , 1°C
Dew Point: 30°F , -1°C
Humidity: 87%
Barometer: 30.05 inHg , 1017.6 hPa
Summary: Light snow, Mist
Clouds: Overcast
Visibility: 2 miles , 3 km
Cloud details: Partly cloudy 600 ft
Mostly cloudy 1000 ft
Overcast 1500 ft
2018/11/15 16:51 KORD 151651Z 00000KT 2SM -SN BR SCT006 BKN010 OVC015 01/M01 A3005 RMK AO2 SLP184 SNINCR 1/1 P0005 T00061006
 
KGYY - Gary Regional, Indiana, USA
Distance from station: E 36mi, 58km
Updated: Thu, 15-Nov-2018 10:45am CST
Light snow, Overcast
Light snow, Overcast
 Wind from calm
Wind: Calm
Temperature: 32°F , 0°C
Dew Point: 30°F , -1°C
Humidity: 93%
Barometer: 30.07 inHg , 1018.3 hPa
Summary: Light Snow
Clouds: Overcast
Visibility: 1 mile , 2 km
Cloud details: Overcast 1000 ft
2018/11/15 16:45 KGYY 151645Z 00000KT 1SM R30/6500FT -SN OVC010 00/M01 A3007
KIKK - Kankakee, Illinois, USA
Distance from station: SSE 36mi, 58km
Updated: Thu, 15-Nov-2018 10:55am CST
Overcast
Overcast
 Wind from NE
Wind: NE 3 mph , 6 km/h
Temperature: 32°F , 0°C
Dew Point: 28°F , -2°C
Humidity: 87%
Barometer: 30.06 inHg , 1017.9 hPa
Clouds: Overcast
Visibility: 10 miles , 16 km
Cloud details: Overcast 1000 ft
2018/11/15 16:55 KIKK 151655Z AUTO 05003KT 10SM OVC010 00/M02 A3006 RMK AO2 T00001025
 
KDKB - De Kalb, Illinois, USA
Distance from station: NW 40mi, 65km
Updated: Thu, 15-Nov-2018 10:55am CST
Light snow, Overcast
Light snow, Overcast
 Wind from S
Wind: S 3 mph , 6 km/h
Temperature: 30°F , -1°C
Dew Point: 30°F , -1°C
Humidity: 100%
Barometer: 30.06 inHg , 1017.9 hPa
Summary: Light Snow
Clouds: Overcast
Visibility: 3/4 mile , 1.2 km
Cloud details: Mostly cloudy 400 ft
Overcast 1500 ft
2018/11/15 16:55 KDKB 151655Z AUTO 19003KT 3/4SM -SN BKN004 OVC015 M01/M01 A3006 RMK AO2 T10101015
KPWK - Palwaukee, Illinois, USA
Distance from station: NNE 41mi, 65km
Updated: Thu, 15-Nov-2018 10:59am CST
Light snow, Mist, Overcast
Light snow, Mist, Overcast
 Wind from calm
Wind: Calm
Temperature: 34°F , 1°C
Dew Point: 30°F , -1°C
Humidity: 87%
Barometer: 30.07 inHg , 1018.3 hPa
Summary: Light snow, Mist
Clouds: Overcast
Visibility: 1 1/4 miles , 2 km
Cloud details: Mostly cloudy 700 ft
Overcast 1000 ft
2018/11/15 16:59 KPWK 151659Z 00000KT 1 1/4SM -SN BR BKN007 OVC010 01/M01 A3007 RMK AO2 CIG 004V008 P0001 T00111006